Main page
METAR-TAF:

METAR-TAF

Airports :

Ada Municipal Airport

Ada, Oklahoma, United States

latitude: 34-48-16N, longitude: 096-40-17W, elevation: 1017 ft

Current weather observation

The report was made 27 minutes ago, at 19:35 UTC
Wind 13 mph from the South/Southeast with gusts up to 20 mph
Temperature 91°F
Humidity 46%
Pressure 29.92 in. Hg
Visibility: 7 miles
Clear sky

METAR: KADH 151935Z AUTO 15011G17KT 7SM CLR 33/20 A2992 RMK AO2

Time: 15:02 (20:02 UTC)


TAF: missing

Weather observations and forecasts of more than 4000 airports (METAR and TAF reports).

The available stations are represented by yellow and red dots on the map.

Hover mouse over dot to see the name of the station.

Then click to see weather observations and forecasts.

To change the map : click on the green buttons with a black cross to zoom in, on the green button with a dash to zoom out, or on the green arrows for adjacent maps.


METAR-TAF: